createdAt,value
2018-12-03T00:01:29.117Z,98713.27
2018-12-03T00:06:32.471Z,98721.41
2018-12-03T00:11:36.295Z,98719.34
2018-12-03T00:16:39.647Z,98717.38
2018-12-03T00:21:43.026Z,98723.45
2018-12-03T00:26:46.410Z,98728.64
2018-12-03T00:31:49.783Z,98730.48
2018-12-03T00:36:53.129Z,98726.57
2018-12-03T00:41:56.499Z,98729.98
2018-12-03T00:46:59.835Z,98731.68
2018-12-03T00:58:38.877Z,98733.45
2018-12-03T01:03:42.243Z,98729.69
2018-12-03T01:08:45.630Z,98728.16
2018-12-03T01:13:48.982Z,98731.69
2018-12-03T01:18:52.362Z,98735.53
2018-12-03T01:23:55.805Z,98718.88
2018-12-03T01:28:59.170Z,98715.42
2018-12-03T01:34:02.542Z,98713.00
2018-12-03T01:39:08.602Z,98715.05
2018-12-03T01:44:11.961Z,98709.97
2018-12-03T01:49:15.280Z,98702.05
2018-12-03T01:54:18.643Z,98708.62
2018-12-03T01:59:21.984Z,98708.90
2018-12-03T02:04:25.415Z,98721.00
2018-12-03T02:09:28.746Z,98720.16
2018-12-03T02:14:32.123Z,98708.05
2018-12-03T02:19:35.475Z,98707.97
2018-12-03T02:24:38.847Z,98709.09
2018-12-03T02:29:42.216Z,98715.63
2018-12-03T02:34:45.621Z,98710.02
2018-12-03T02:39:49.011Z,98717.54
2018-12-03T02:44:52.339Z,98719.50
2018-12-03T02:49:55.662Z,98713.08
2018-12-03T02:54:59.036Z,98707.82
2018-12-03T03:00:02.450Z,98701.25
2018-12-03T03:05:08.064Z,98708.62
2018-12-03T03:10:12.554Z,98702.39
2018-12-03T03:15:16.069Z,98701.05
2018-12-03T03:20:19.395Z,98703.02
2018-12-03T03:25:22.751Z,98697.78
2018-12-03T03:30:26.131Z,98695.24
2018-12-03T03:35:29.477Z,98686.33
2018-12-03T03:40:32.845Z,98683.26
2018-12-03T03:45:36.229Z,98681.72
2018-12-03T03:50:39.560Z,98680.02
2018-12-03T03:55:42.894Z,98679.03
2018-12-03T04:00:46.194Z,98686.25
2018-12-03T04:05:49.537Z,98691.78
2018-12-03T04:10:52.883Z,98685.67
2018-12-03T04:15:56.222Z,98681.29
2018-12-03T04:20:59.571Z,98676.41
2018-12-03T04:26:02.885Z,98679.25
2018-12-03T04:31:06.218Z,98674.87
2018-12-03T04:36:09.576Z,98669.98
2018-12-03T04:41:12.903Z,98665.45
2018-12-03T04:46:16.216Z,98668.99
2018-12-03T04:51:19.574Z,98665.80
2018-12-03T04:56:22.942Z,98665.50
2018-12-03T05:01:26.318Z,98670.45
2018-12-03T05:06:29.753Z,98665.88
2018-12-03T05:11:33.137Z,98664.69
2018-12-03T05:16:36.434Z,98666.98
2018-12-03T05:21:39.769Z,98666.14
2018-12-03T05:26:43.106Z,98676.05
2018-12-03T05:31:46.463Z,98672.52
2018-12-03T05:36:49.846Z,98666.80
2018-12-03T05:41:53.175Z,98671.47
2018-12-03T05:46:56.514Z,98675.50
2018-12-03T05:51:59.838Z,98680.88
2018-12-03T05:57:03.218Z,98691.64
2018-12-03T06:02:06.667Z,98694.44
2018-12-03T06:07:09.984Z,98697.63
2018-12-03T06:12:13.306Z,98680.66
2018-12-03T06:17:16.684Z,98685.68
2018-12-03T06:22:19.999Z,98683.64
2018-12-03T06:27:23.314Z,98693.52
2018-12-03T06:32:26.628Z,98694.73
2018-12-03T06:37:29.983Z,98693.39
2018-12-03T06:42:33.353Z,98686.80
2018-12-03T06:47:36.810Z,98689.98
2018-12-03T06:52:40.141Z,98695.00
2018-12-03T06:57:43.502Z,98698.19
2018-12-03T07:02:46.890Z,98686.73
2018-12-03T07:07:51.690Z,98691.27
2018-12-03T07:12:56.680Z,98699.34
2018-12-03T07:18:00.032Z,98688.20
2018-12-03T07:23:03.392Z,98681.63
2018-12-03T07:28:06.981Z,98682.97
2018-12-03T07:33:10.280Z,98688.11
2018-12-03T07:38:13.738Z,98692.63
2018-12-03T07:43:17.054Z,98706.78
2018-12-03T07:48:20.380Z,98705.25
2018-12-03T07:53:23.694Z,98708.38
2018-12-03T07:58:27.093Z,98711.93
2018-12-03T08:03:30.421Z,98714.58
2018-12-03T08:08:33.730Z,98714.44
2018-12-03T08:13:37.081Z,98718.42
2018-12-03T08:18:40.398Z,98715.06
2018-12-03T08:23:49.731Z,98698.61
2018-12-03T08:28:53.050Z,98688.70
2018-12-03T08:33:56.374Z,98689.53
2018-12-03T08:38:59.754Z,98709.83
2018-12-03T08:44:03.067Z,98719.96
2018-12-03T08:49:07.543Z,98720.89
2018-12-03T08:54:10.842Z,98714.06
2018-12-03T08:59:14.240Z,98722.30
2018-12-03T09:04:19.108Z,98723.09
2018-12-03T09:09:22.440Z,98716.08
2018-12-03T09:14:30.220Z,98722.48
2018-12-03T09:19:33.567Z,98721.95
2018-12-03T09:24:36.888Z,98728.66
2018-12-03T09:29:40.255Z,98728.42
2018-12-03T09:34:43.576Z,98729.95
2018-12-03T09:39:49.220Z,98734.09
2018-12-03T09:44:53.355Z,98727.84
2018-12-03T09:49:56.715Z,98741.78
2018-12-03T09:55:00.352Z,98749.00
2018-12-03T10:00:04.050Z,98747.05
2018-12-03T10:05:07.850Z,98736.06
2018-12-03T10:10:14.378Z,98739.77
2018-12-03T10:15:17.746Z,98750.11
2018-12-03T10:20:21.110Z,98743.03
2018-12-03T10:25:24.505Z,98744.21
2018-12-03T10:30:28.756Z,98728.11
2018-12-03T10:35:33.623Z,98734.92
2018-12-03T10:40:44.993Z,98723.34
2018-12-03T10:45:48.380Z,98734.38
2018-12-03T10:50:51.715Z,98733.30
2018-12-03T10:55:55.073Z,98731.02
2018-12-03T11:01:05.720Z,98727.01
2018-12-03T11:06:14.345Z,98723.05
2018-12-03T11:11:17.736Z,98718.94
2018-12-03T11:16:30.042Z,98713.30
2018-12-03T11:21:33.379Z,98711.22
2018-12-03T11:26:39.933Z,98704.15
2018-12-03T11:31:43.338Z,98687.54
2018-12-03T11:36:48.823Z,98695.67
2018-12-03T11:41:56.792Z,98693.09
2018-12-03T11:47:00.120Z,98692.75
2018-12-03T11:52:03.438Z,98687.38
2018-12-03T11:57:08.000Z,98686.80
2018-12-03T12:02:11.344Z,98690.48
2018-12-03T12:07:14.683Z,98684.03
2018-12-03T12:12:18.003Z,98695.85
2018-12-03T12:17:21.342Z,98701.03
2018-12-03T12:22:24.676Z,98697.78
2018-12-03T12:27:28.030Z,98690.13
2018-12-03T12:32:31.351Z,98671.80
2018-12-03T12:37:34.687Z,98678.03
2018-12-03T12:42:38.031Z,98684.17
2018-12-03T12:47:41.351Z,98682.47
2018-12-03T12:52:44.713Z,98686.59
2018-12-03T12:57:48.039Z,98678.17
2018-12-03T13:02:52.591Z,98671.45
2018-12-03T13:07:56.010Z,98674.50
2018-12-03T13:12:59.330Z,98678.95
2018-12-03T13:18:02.661Z,98676.53
2018-12-03T13:23:06.552Z,98671.81
2018-12-03T13:28:09.921Z,98677.03
2018-12-03T13:33:13.274Z,98669.70
2018-12-03T13:38:16.696Z,98667.13
2018-12-03T13:43:20.023Z,98668.27
2018-12-03T13:48:23.369Z,98659.02
2018-12-03T13:53:26.703Z,98660.47
2018-12-03T13:58:30.023Z,98658.44
2018-12-03T14:03:35.170Z,98660.13
2018-12-03T14:11:05.617Z,98663.31
2018-12-03T14:17:15.505Z,98680.20
2018-12-03T14:22:21.986Z,98701.83
2018-12-03T14:27:25.328Z,98697.47
2018-12-03T14:32:28.658Z,98707.58
2018-12-03T14:37:31.981Z,98710.84
2018-12-03T14:42:35.324Z,98716.63
2018-12-03T14:47:38.656Z,98715.94
2018-12-03T14:52:42.000Z,98717.62
2018-12-03T14:57:45.344Z,98722.30
2018-12-03T15:02:48.725Z,98722.30
2018-12-03T15:07:52.074Z,98715.50
2018-12-03T15:12:55.467Z,98717.59
2018-12-03T15:17:58.807Z,98718.33
2018-12-03T15:23:02.143Z,98718.06
2018-12-03T15:28:05.503Z,98711.05
2018-12-03T15:33:08.835Z,98708.38
2018-12-03T15:38:12.223Z,98708.19
2018-12-03T15:43:46.659Z,98706.19
2018-12-03T15:48:50.087Z,98715.84
2018-12-03T15:53:53.477Z,98713.84
2018-12-03T15:58:56.827Z,98707.32
2018-12-03T16:04:00.239Z,98713.08
2018-12-03T16:09:05.340Z,98715.82
2018-12-03T16:14:08.701Z,98717.74
2018-12-03T16:19:12.011Z,98717.33
2018-12-03T16:24:15.531Z,98715.69
2018-12-03T16:29:19.521Z,98711.03
2018-12-03T16:34:23.023Z,98712.23
2018-12-03T16:39:26.358Z,98708.55
2018-12-03T16:44:30.123Z,98706.92
2018-12-03T16:49:33.461Z,98704.78
2018-12-03T16:54:37.426Z,98709.16
2018-12-03T16:59:40.836Z,98711.86
2018-12-03T17:04:44.258Z,98718.81
2018-12-03T17:09:47.628Z,98721.13
2018-12-03T17:14:50.971Z,98716.95
2018-12-03T17:19:54.395Z,98708.69
2018-12-03T17:24:57.744Z,98709.81
2018-12-03T17:30:01.130Z,98716.66
2018-12-03T17:35:05.570Z,98709.09
2018-12-03T17:40:10.946Z,98724.71
2018-12-03T17:45:14.360Z,98721.77
2018-12-03T17:50:17.730Z,98701.72
2018-12-03T17:55:21.130Z,98703.91
2018-12-03T18:00:24.627Z,98709.48
2018-12-03T18:05:27.948Z,98707.67
2018-12-03T18:10:31.579Z,98709.69
2018-12-03T18:15:34.999Z,98700.53
2018-12-03T18:20:38.480Z,98703.30
2018-12-03T18:25:43.418Z,98702.23
2018-12-03T18:30:46.718Z,98698.59
2018-12-03T18:35:50.032Z,98700.35
2018-12-03T18:40:53.803Z,98696.91
2018-12-03T18:45:57.217Z,98689.95
2018-12-03T18:51:00.820Z,98683.84
2018-12-03T18:56:04.310Z,98676.85
2018-12-03T19:01:07.687Z,98685.59
2018-12-03T19:06:11.064Z,98681.49
2018-12-03T19:11:14.502Z,98679.80
2018-12-03T19:16:17.882Z,98682.16
2018-12-03T19:21:21.238Z,98691.92
2018-12-03T19:26:24.558Z,98697.25
2018-12-03T19:31:27.860Z,98681.78
2018-12-03T19:36:31.169Z,98680.49
2018-12-03T19:41:34.483Z,98690.92
2018-12-03T19:46:37.891Z,98689.23
2018-12-03T19:51:41.196Z,98681.27
2018-12-03T19:56:44.507Z,98689.30
2018-12-03T20:01:47.824Z,98678.52
2018-12-03T20:06:51.115Z,98686.91
2018-12-03T20:11:54.497Z,98677.08
2018-12-03T20:16:59.392Z,98669.22
2018-12-03T20:22:04.544Z,98672.85
2018-12-03T20:27:44.605Z,98670.81
2018-12-03T20:32:53.526Z,98663.30
2018-12-03T20:38:09.699Z,98669.75
2018-12-03T20:43:17.576Z,98662.73
2018-12-03T20:48:26.635Z,98672.00
2018-12-03T20:53:34.815Z,98673.45
2018-12-03T20:58:38.131Z,98663.36
2018-12-03T21:03:41.443Z,98671.69
2018-12-03T21:08:44.767Z,98677.08
2018-12-03T21:13:48.088Z,98685.81
2018-12-03T21:18:51.415Z,98689.69
2018-12-03T21:23:54.851Z,98693.73
2018-12-03T21:28:58.781Z,98692.88
2018-12-03T21:34:02.186Z,98694.86
2018-12-03T21:39:13.607Z,98698.62
2018-12-03T21:44:16.958Z,98698.12
2018-12-03T21:49:20.270Z,98704.28
2018-12-03T21:54:23.602Z,98704.00
2018-12-03T21:59:26.916Z,98717.47
2018-12-03T22:04:30.215Z,98707.45
2018-12-03T22:09:33.529Z,98707.18
2018-12-03T22:14:36.909Z,98730.42
2018-12-03T22:19:40.251Z,98728.23
2018-12-03T22:24:43.584Z,98736.66
2018-12-03T22:29:46.902Z,98740.50
2018-12-03T22:34:50.311Z,98746.73
2018-12-03T22:39:53.663Z,98739.31
2018-12-03T22:44:57.112Z,98746.05
2018-12-03T22:50:00.442Z,98736.63
2018-12-03T22:55:04.465Z,98739.31
2018-12-03T23:00:17.436Z,98743.82
2018-12-03T23:05:20.940Z,98742.63
2018-12-03T23:10:24.265Z,98749.36
2018-12-03T23:15:27.735Z,98757.60
2018-12-03T23:20:31.155Z,98760.64
2018-12-03T23:25:34.473Z,98767.72
2018-12-03T23:30:37.779Z,98774.95
2018-12-03T23:35:41.075Z,98774.45
2018-12-03T23:40:44.443Z,98782.53
2018-12-03T23:45:47.736Z,98785.73
2018-12-03T23:50:51.064Z,98786.73
2018-12-03T23:55:54.373Z,98788.08
